Dresden, OH (43821)

6:08 AM EST on February 08, 2016 (GMT -0500)
FranklinTownship TR 479 | | Change Station
CLOSE
Current Station
Personal Weather Station
Location: Coshocton, OH
Elevation: 866 ft
Nearby Weather Stations
Active Advisory: Winter Weather Advisory

Elev 866 ft 40.21 °N, 81.89 °W | Updated 3 seconds ago

Overcast
Overcast
37.2 °F
Feels Like 37 °F
N
0.0
Wind Variable Wind from NW
Gusts 0.0 mph

Today
High -- | Low -- °F
--% Chance of Precip.
Yesterday
High -- | Low -- °F
Precip. -- in
Pressure 29.67 in
Visibility 10.0 miles
Clouds Overcast 8500 ft
Windchill 37 °F
Dew Point 21 °F
Humidity 52%
Rainfall 0.00 in
Snow Depth Not available.
7:29 AM 5:54 PM
Waning Crescent, 0% visible
METAR KZZV 081053Z AUTO 13004KT 10SM OVC085 03/M04 A2966 RMK AO2 SLP046 T00281044
Pressure 29.67 in
Visibility 10.0 miles
Clouds Overcast 8500 ft
Windchill 37 °F
Dew Point 21 °F
Humidity 52%
Rainfall 0.00 in
Snow Depth Not available.
7:29 AM 5:54 PM
Waning Crescent, 0% visible
METAR KZZV 081053Z AUTO 13004KT 10SM OVC085 03/M04 A2966 RMK AO2 SLP046 T00281044

10-Day Weather Forecast

Almanac

Astronomy

Feb. 08, 2016 Rise Set
Actual Time
Civil Twilight
Nautical Twilight
Astronomical Twilight
Moon
Length of Visible Light
Length of Day
Tomorrow will be .
, % of the Moon is Illuminated

Today's Extremes

State Highs State Lows

Community

WunderPhotos

Upload Photos

1,891,420 photos uploaded!

WunderBlog® & News

Nearby

Air Quality

  Air Quality AQ Index Pollutant
Not available.

Snow Depth

Station Depth Elevation

Earthquake Activity

City Distance Mag. Time & Date
Minimum magnitude displayed is 2.5.

Coastal Water Temperatures

Place Temperature

Stations

Nearby Weather Stations

Station Location Temp. Windchill Dew Point Humidity Wind Precip. Elev Updated Type
                   

Watches & Warnings

Winter Weather Advisory
Issued: 4:13 AM EST Feb. 8, 2016 – National Weather Service

... Winter Weather Advisory in effect from 7 PM this evening to
7 am EST Wednesday...

The National Weather Service in Pittsburgh has issued a Winter
Weather Advisory for snow... which is in effect from 7 PM this
evening to 7 am EST Wednesday.

* Snow accumulation... 1 to 3 inches through early Tuesday... with
an additional 1 to 3 inches through early Wednesday.

* Snow beginning... Monday evening.

* Period of most intense snow... early Tuesday morning.

* Snow ending... snow will gradually taper down through late
Tuesday.

* Impacts... hazardous travel conditions are expected due to snow.

Precautionary/preparedness actions...

A Winter Weather Advisory for snow means that periods of snow
will cause primarily travel difficulties. Be prepared for snow
covered roads and limited visibilities... and use caution while
driving.